»·PEaware :: UAL263 KBOI-KGPI

UAL263 :: KBOI-KGPI

FLIGHT INFORMATION

Flight Status: Arrived
Operator:
United Airlines
More flights by this operator :: More flights under this callsign
Pilot: Max W. (2591)
Aircraft: AIRBUS A319
(A319)
More flights by this aircraft type
Origin: KBOI Boise Air Terminal/Gowen
United States
Destination: KGPI Glacier Park Intl
United States
More flights between these airports :: More routes between these airports
Route: BOI3 SAWTT FCA
File this flight plan on PilotEdge
Remarks:
Altitude:
(Current/Filed)
29,000ft
Speed:
(Current/Filed)
450kts
Departed: 06-Mar-18 09:38 PM
Arrived: 06-Mar-18 10:46 PM
Distance/Time
Traveled:
297nm/1:08
Distance/Time
To Go:
Arrived

Flight Plot

Page will automatically refresh every two minutes.

Flight plan parsing failed; only flown route is shown


Map Options




Map Legend


Flown Route
Filed Route
Departure Airport
Arrival Airport
Navaid (VOR, NDB)
Fix

Horizontal Profiles

Position Reports

Time Latitude Longitude Heading Altitude Ground
Speed
06-Mar-18 21:35 43.567998 -116.222715 310 2853ft 0kts
06-Mar-18 21:36 43.567998 -116.222715 310 2853ft 0kts
06-Mar-18 21:37 43.567998 -116.222715 310 2853ft 0kts
06-Mar-18 21:38 43.567998 -116.222715 310 2853ft 0kts
06-Mar-18 21:39 43.567998 -116.222715 310 2853ft 0kts
06-Mar-18 21:40 43.567998 -116.222715 310 2853ft 0kts
06-Mar-18 21:41 43.567995 -116.222778 243 2853ft 2kts
06-Mar-18 21:42 43.568072 -116.226933 292 2848ft 24kts
06-Mar-18 21:43 43.570759 -116.235628 253 2819ft 9kts
06-Mar-18 21:44 43.569812 -116.235601 114 2821ft 22kts
06-Mar-18 21:45 43.556561 -116.194439 113 3855ft 162kts
06-Mar-18 21:46 43.538578 -116.132168 114 5603ft 205kts
06-Mar-18 21:47 43.513778 -116.045983 114 7312ft 272kts
06-Mar-18 21:48 43.540795 -115.957863 10 9986ft 292kts
06-Mar-18 21:49 43.611864 -115.943516 5 11631ft 326kts
06-Mar-18 21:50 43.710588 -115.923430 3 15374ft 307kts
06-Mar-18 21:51 43.796277 -115.905846 2 17455ft 316kts
06-Mar-18 21:52 43.884194 -115.887676 2 19344ft 325kts
06-Mar-18 21:53 43.959376 -115.872084 1 20821ft 332kts
06-Mar-18 21:54 44.067204 -115.849646 1 22736ft 341kts
06-Mar-18 21:55 44.144239 -115.833571 1 23952ft 348kts
06-Mar-18 21:56 44.238998 -115.813722 0 25393ft 354kts
06-Mar-18 21:57 44.337023 -115.793140 0 26722ft 360kts
06-Mar-18 21:58 44.436600 -115.772175 359 27935ft 367kts
06-Mar-18 21:59 44.538237 -115.750743 359 29064ft 373kts
06-Mar-18 22:00 44.640765 -115.725974 5 29287ft 380kts
06-Mar-18 22:01 44.742781 -115.684777 7 29287ft 382kts
06-Mar-18 22:02 44.844484 -115.643234 7 29287ft 382kts
06-Mar-18 22:03 44.946119 -115.601615 7 29287ft 382kts
06-Mar-18 22:04 45.047948 -115.559837 7 29287ft 381kts
06-Mar-18 22:05 45.148090 -115.518607 8 29278ft 380kts
06-Mar-18 22:06 45.248311 -115.477156 8 29287ft 380kts
06-Mar-18 22:07 45.349651 -115.435081 8 29285ft 380kts
06-Mar-18 22:08 45.450662 -115.392983 8 29281ft 381kts
06-Mar-18 22:09 45.552208 -115.350498 8 29277ft 381kts
06-Mar-18 22:10 45.651699 -115.308317 9 29276ft 382kts
06-Mar-18 22:11 45.753154 -115.265449 9 29277ft 382kts
06-Mar-18 22:12 45.854994 -115.222317 8 29277ft 382kts
06-Mar-18 22:13 45.956411 -115.179263 8 29277ft 382kts
06-Mar-18 22:14 46.057804 -115.136040 8 29277ft 381kts
06-Mar-18 22:15 46.155128 -115.094450 8 29269ft 381kts
06-Mar-18 22:16 46.255235 -115.051506 8 29280ft 380kts
06-Mar-18 22:17 46.355038 -115.008468 9 27831ft 371kts
06-Mar-18 22:18 46.452176 -114.966430 9 26155ft 362kts
06-Mar-18 22:19 46.547038 -114.925233 9 24497ft 353kts
06-Mar-18 22:20 46.640665 -114.884436 9 24283ft 353kts
06-Mar-18 22:21 46.734999 -114.843232 9 24284ft 366kts
06-Mar-18 22:22 46.830173 -114.791272 13 24282ft 363kts
06-Mar-18 22:23 46.924262 -114.739097 13 24282ft 362kts
06-Mar-18 22:24 47.017809 -114.687432 13 24282ft 359kts
06-Mar-18 22:25 47.108396 -114.637356 13 24264ft 359kts
06-Mar-18 22:26 47.200525 -114.586397 13 24282ft 359kts
06-Mar-18 22:27 47.298580 -114.531981 13 24283ft 392kts
06-Mar-18 22:28 47.399758 -114.475224 13 23464ft 386kts
06-Mar-18 22:29 47.498660 -114.419681 14 21557ft 377kts
06-Mar-18 22:30 47.594648 -114.365576 14 19715ft 367kts
06-Mar-18 22:31 47.683017 -114.315165 15 18768ft 329kts
06-Mar-18 22:32 47.759257 -114.271846 13 17808ft 278kts
06-Mar-18 22:33 47.829778 -114.231854 14 15988ft 267kts
06-Mar-18 22:34 47.891265 -114.172305 35 14220ft 267kts
06-Mar-18 22:35 47.954346 -114.130319 353 12452ft 241kts
06-Mar-18 22:36 48.016186 -114.154113 345 10720ft 230kts
06-Mar-18 22:37 48.068454 -114.189537 295 10027ft 193kts
06-Mar-18 22:38 48.054527 -114.262971 216 9998ft 212kts
06-Mar-18 22:39 48.002670 -114.237441 109 10025ft 235kts
06-Mar-18 22:40 47.973861 -114.153517 143 10006ft 233kts
06-Mar-18 22:41 47.937173 -114.194868 232 9996ft 207kts
06-Mar-18 22:42 47.894845 -114.251080 233 8728ft 204kts
06-Mar-18 22:43 47.894642 -114.324911 311 6826ft 186kts
06-Mar-18 22:44 47.927776 -114.379548 322 6672ft 183kts
06-Mar-18 22:45 47.976430 -114.401175 350 6839ft 185kts
06-Mar-18 22:46 48.024769 -114.412642 344 7058ft 174kts
06-Mar-18 22:47 48.078971 -114.413687 11 6498ft 201kts
06-Mar-18 22:48 48.126938 -114.393815 14 5824ft 179kts
06-Mar-18 22:49 48.177407 -114.379494 8 5224ft 172kts
06-Mar-18 22:50 48.221021 -114.348557 33 4921ft 162kts
06-Mar-18 22:51 48.258408 -114.309973 34 4219ft 165kts
06-Mar-18 22:52 48.294959 -114.271787 35 3150ft 166kts
06-Mar-18 22:53 48.314447 -114.249214 117 2975ft 9kts

Navigation Log

Ident Type
Flight plan parsing failed, navigation log unavailable